sensor_id;sensor_type;location;lat;lon;timestamp;P1;durP1;ratioP1;P2;durP2;ratioP2
54795;SDS011;40693;43.884;20.340;2023-06-22T00:00:43;17.90;;;16.02;;
54795;SDS011;40693;43.884;20.340;2023-06-22T00:03:09;19.35;;;17.35;;
54795;SDS011;40693;43.884;20.340;2023-06-22T00:05:35;19.40;;;17.27;;
54795;SDS011;40693;43.884;20.340;2023-06-22T00:08:02;22.55;;;16.13;;
54795;SDS011;40693;43.884;20.340;2023-06-22T00:10:29;20.00;;;15.88;;
54795;SDS011;40693;43.884;20.340;2023-06-22T00:12:55;18.38;;;15.52;;
54795;SDS011;40693;43.884;20.340;2023-06-22T00:15:21;25.75;;;18.77;;
54795;SDS011;40693;43.884;20.340;2023-06-22T00:17:47;19.10;;;16.75;;
54795;SDS011;40693;43.884;20.340;2023-06-22T00:20:12;19.10;;;16.90;;
54795;SDS011;40693;43.884;20.340;2023-06-22T00:22:39;20.35;;;18.08;;
54795;SDS011;40693;43.884;20.340;2023-06-22T00:25:07;18.02;;;16.20;;
54795;SDS011;40693;43.884;20.340;2023-06-22T00:27:34;19.90;;;16.58;;
54795;SDS011;40693;43.884;20.340;2023-06-22T00:30:00;18.35;;;15.30;;
54795;SDS011;40693;43.884;20.340;2023-06-22T00:32:26;18.33;;;16.23;;
54795;SDS011;40693;43.884;20.340;2023-06-22T00:34:51;21.05;;;17.80;;
54795;SDS011;40693;43.884;20.340;2023-06-22T00:37:17;21.25;;;17.88;;
54795;SDS011;40693;43.884;20.340;2023-06-22T00:39:43;18.00;;;16.05;;
54795;SDS011;40693;43.884;20.340;2023-06-22T00:42:09;17.25;;;15.45;;
54795;SDS011;40693;43.884;20.340;2023-06-22T00:44:35;17.45;;;15.38;;
54795;SDS011;40693;43.884;20.340;2023-06-22T00:47:01;20.23;;;18.08;;
54795;SDS011;40693;43.884;20.340;2023-06-22T00:49:28;18.55;;;16.30;;
54795;SDS011;40693;43.884;20.340;2023-06-22T00:51:54;19.70;;;17.38;;
54795;SDS011;40693;43.884;20.340;2023-06-22T00:54:21;18.25;;;16.45;;
54795;SDS011;40693;43.884;20.340;2023-06-22T00:56:58;21.13;;;16.70;;
54795;SDS011;40693;43.884;20.340;2023-06-22T00:59:24;18.77;;;16.77;;
54795;SDS011;40693;43.884;20.340;2023-06-22T01:01:51;21.80;;;17.95;;
54795;SDS011;40693;43.884;20.340;2023-06-22T01:04:17;24.20;;;18.55;;
54795;SDS011;40693;43.884;20.340;2023-06-22T01:06:51;18.95;;;16.77;;
54795;SDS011;40693;43.884;20.340;2023-06-22T01:09:27;19.75;;;17.52;;
54795;SDS011;40693;43.884;20.340;2023-06-22T01:12:00;19.20;;;17.20;;
54795;SDS011;40693;43.884;20.340;2023-06-22T01:14:35;19.70;;;17.42;;
54795;SDS011;40693;43.884;20.340;2023-06-22T01:17:05;19.58;;;17.48;;
54795;SDS011;40693;43.884;20.340;2023-06-22T01:22:00;19.55;;;17.15;;
54795;SDS011;40693;43.884;20.340;2023-06-22T01:24:30;25.50;;;17.77;;
54795;SDS011;40693;43.884;20.340;2023-06-22T01:29:57;20.38;;;17.30;;
54795;SDS011;40693;43.884;20.340;2023-06-22T01:32:28;21.23;;;17.55;;
54795;SDS011;40693;43.884;20.340;2023-06-22T01:34:58;22.30;;;18.15;;
54795;SDS011;40693;43.884;20.340;2023-06-22T01:37:26;22.70;;;17.58;;
54795;SDS011;40693;43.884;20.340;2023-06-22T01:39:53;26.90;;;17.77;;
54795;SDS011;40693;43.884;20.340;2023-06-22T01:42:21;22.10;;;16.95;;
54795;SDS011;40693;43.884;20.340;2023-06-22T01:44:48;20.58;;;18.23;;
54795;SDS011;40693;43.884;20.340;2023-06-22T01:47:15;20.02;;;17.80;;
54795;SDS011;40693;43.884;20.340;2023-06-22T01:49:42;23.92;;;19.88;;
54795;SDS011;40693;43.884;20.340;2023-06-22T01:52:08;21.85;;;18.88;;
54795;SDS011;40693;43.884;20.340;2023-06-22T01:54:34;21.23;;;18.80;;
54795;SDS011;40693;43.884;20.340;2023-06-22T01:57:00;19.90;;;17.90;;
54795;SDS011;40693;43.884;20.340;2023-06-22T01:59:29;20.20;;;17.70;;
54795;SDS011;40693;43.884;20.340;2023-06-22T02:02:04;24.30;;;17.90;;
54795;SDS011;40693;43.884;20.340;2023-06-22T02:04:44;21.50;;;17.98;;
54795;SDS011;40693;43.884;20.340;2023-06-22T02:07:18;23.63;;;18.83;;
54795;SDS011;40693;43.884;20.340;2023-06-22T02:09:47;20.80;;;18.25;;
54795;SDS011;40693;43.884;20.340;2023-06-22T02:12:17;20.48;;;18.38;;
54795;SDS011;40693;43.884;20.340;2023-06-22T02:14:46;22.35;;;19.25;;
54795;SDS011;40693;43.884;20.340;2023-06-22T02:17:12;22.27;;;19.23;;
54795;SDS011;40693;43.884;20.340;2023-06-22T02:19:42;21.27;;;19.08;;
54795;SDS011;40693;43.884;20.340;2023-06-22T02:22:08;21.33;;;18.98;;
54795;SDS011;40693;43.884;20.340;2023-06-22T02:24:34;23.38;;;19.58;;
54795;SDS011;40693;43.884;20.340;2023-06-22T02:27:00;25.33;;;20.35;;
54795;SDS011;40693;43.884;20.340;2023-06-22T02:29:26;21.95;;;19.65;;
54795;SDS011;40693;43.884;20.340;2023-06-22T02:31:53;24.58;;;18.23;;
54795;SDS011;40693;43.884;20.340;2023-06-22T02:34:19;22.92;;;20.48;;
54795;SDS011;40693;43.884;20.340;2023-06-22T02:36:46;22.50;;;19.88;;
54795;SDS011;40693;43.884;20.340;2023-06-22T02:39:15;28.60;;;20.60;;
54795;SDS011;40693;43.884;20.340;2023-06-22T02:41:45;21.88;;;18.73;;
54795;SDS011;40693;43.884;20.340;2023-06-22T02:44:11;23.13;;;19.70;;
54795;SDS011;40693;43.884;20.340;2023-06-22T02:46:36;23.38;;;20.08;;
54795;SDS011;40693;43.884;20.340;2023-06-22T02:49:02;23.83;;;21.23;;
54795;SDS011;40693;43.884;20.340;2023-06-22T02:51:28;27.85;;;21.00;;
54795;SDS011;40693;43.884;20.340;2023-06-22T02:53:54;29.25;;;20.77;;
54795;SDS011;40693;43.884;20.340;2023-06-22T02:56:22;25.50;;;20.15;;
54795;SDS011;40693;43.884;20.340;2023-06-22T02:58:50;24.77;;;21.90;;
54795;SDS011;40693;43.884;20.340;2023-06-22T03:01:16;25.45;;;18.65;;
54795;SDS011;40693;43.884;20.340;2023-06-22T03:03:49;25.38;;;21.67;;
54795;SDS011;40693;43.884;20.340;2023-06-22T03:06:15;23.45;;;19.52;;
54795;SDS011;40693;43.884;20.340;2023-06-22T03:08:40;22.17;;;19.83;;
54795;SDS011;40693;43.884;20.340;2023-06-22T03:11:06;24.40;;;19.55;;
54795;SDS011;40693;43.884;20.340;2023-06-22T03:13:33;21.75;;;17.98;;
54795;SDS011;40693;43.884;20.340;2023-06-22T03:15:59;24.05;;;19.52;;
54795;SDS011;40693;43.884;20.340;2023-06-22T03:18:24;27.45;;;20.23;;
54795;SDS011;40693;43.884;20.340;2023-06-22T03:20:50;27.95;;;20.08;;
54795;SDS011;40693;43.884;20.340;2023-06-22T03:23:16;23.88;;;19.67;;
54795;SDS011;40693;43.884;20.340;2023-06-22T03:25:42;22.08;;;19.77;;
54795;SDS011;40693;43.884;20.340;2023-06-22T03:28:09;21.33;;;18.98;;
54795;SDS011;40693;43.884;20.340;2023-06-22T03:30:35;22.60;;;19.70;;
54795;SDS011;40693;43.884;20.340;2023-06-22T03:33:01;19.95;;;17.95;;
54795;SDS011;40693;43.884;20.340;2023-06-22T03:35:27;23.02;;;20.55;;
54795;SDS011;40693;43.884;20.340;2023-06-22T03:37:53;26.52;;;21.02;;
54795;SDS011;40693;43.884;20.340;2023-06-22T03:40:18;20.83;;;18.63;;
54795;SDS011;40693;43.884;20.340;2023-06-22T03:42:45;23.25;;;20.75;;
54795;SDS011;40693;43.884;20.340;2023-06-22T03:45:11;22.80;;;19.80;;
54795;SDS011;40693;43.884;20.340;2023-06-22T03:47:36;23.15;;;18.13;;
54795;SDS011;40693;43.884;20.340;2023-06-22T03:50:02;22.45;;;20.02;;
54795;SDS011;40693;43.884;20.340;2023-06-22T03:52:29;22.15;;;19.17;;
54795;SDS011;40693;43.884;20.340;2023-06-22T03:54:55;21.17;;;18.85;;
54795;SDS011;40693;43.884;20.340;2023-06-22T03:57:21;22.63;;;19.92;;
54795;SDS011;40693;43.884;20.340;2023-06-22T03:59:47;21.20;;;18.80;;
54795;SDS011;40693;43.884;20.340;2023-06-22T04:02:12;21.98;;;18.33;;
54795;SDS011;40693;43.884;20.340;2023-06-22T04:04:38;20.77;;;18.58;;
54795;SDS011;40693;43.884;20.340;2023-06-22T04:07:04;26.23;;;20.52;;
54795;SDS011;40693;43.884;20.340;2023-06-22T04:09:30;25.15;;;19.58;;
54795;SDS011;40693;43.884;20.340;2023-06-22T04:11:56;24.80;;;19.95;;
54795;SDS011;40693;43.884;20.340;2023-06-22T04:14:22;22.63;;;19.90;;
54795;SDS011;40693;43.884;20.340;2023-06-22T04:16:47;21.80;;;19.45;;
54795;SDS011;40693;43.884;20.340;2023-06-22T04:19:13;25.05;;;22.17;;
54795;SDS011;40693;43.884;20.340;2023-06-22T04:21:44;24.23;;;21.00;;
54795;SDS011;40693;43.884;20.340;2023-06-22T04:24:10;27.63;;;21.20;;
54795;SDS011;40693;43.884;20.340;2023-06-22T04:26:36;25.33;;;21.20;;
54795;SDS011;40693;43.884;20.340;2023-06-22T04:29:03;24.77;;;20.60;;
54795;SDS011;40693;43.884;20.340;2023-06-22T04:31:31;22.30;;;20.00;;
54795;SDS011;40693;43.884;20.340;2023-06-22T04:34:01;25.88;;;19.80;;
54795;SDS011;40693;43.884;20.340;2023-06-22T04:36:38;26.33;;;20.92;;
54795;SDS011;40693;43.884;20.340;2023-06-22T04:39:06;24.77;;;21.77;;
54795;SDS011;40693;43.884;20.340;2023-06-22T04:41:38;21.85;;;19.42;;
54795;SDS011;40693;43.884;20.340;2023-06-22T04:46:34;26.45;;;19.90;;
54795;SDS011;40693;43.884;20.340;2023-06-22T04:49:06;22.47;;;19.57;;
54795;SDS011;40693;43.884;20.340;2023-06-22T04:51:37;27.38;;;21.27;;
54795;SDS011;40693;43.884;20.340;2023-06-22T04:54:04;24.52;;;21.40;;
54795;SDS011;40693;43.884;20.340;2023-06-22T04:56:30;27.00;;;20.52;;
54795;SDS011;40693;43.884;20.340;2023-06-22T04:58:56;25.88;;;21.77;;
54795;SDS011;40693;43.884;20.340;2023-06-22T05:01:25;27.80;;;22.33;;
54795;SDS011;40693;43.884;20.340;2023-06-22T05:03:51;25.02;;;21.25;;
54795;SDS011;40693;43.884;20.340;2023-06-22T05:06:21;27.88;;;22.02;;
54795;SDS011;40693;43.884;20.340;2023-06-22T05:08:51;30.70;;;22.48;;
54795;SDS011;40693;43.884;20.340;2023-06-22T05:11:18;29.20;;;23.20;;
54795;SDS011;40693;43.884;20.340;2023-06-22T05:13:43;26.33;;;21.65;;
54795;SDS011;40693;43.884;20.340;2023-06-22T05:16:09;26.05;;;23.20;;
54795;SDS011;40693;43.884;20.340;2023-06-22T05:18:35;30.38;;;21.42;;
54795;SDS011;40693;43.884;20.340;2023-06-22T05:21:01;26.33;;;23.30;;
54795;SDS011;40693;43.884;20.340;2023-06-22T05:23:27;31.98;;;24.60;;
54795;SDS011;40693;43.884;20.340;2023-06-22T05:25:52;32.72;;;26.17;;
54795;SDS011;40693;43.884;20.340;2023-06-22T05:28:19;27.85;;;23.83;;
54795;SDS011;40693;43.884;20.340;2023-06-22T05:30:47;29.23;;;23.45;;
54795;SDS011;40693;43.884;20.340;2023-06-22T05:33:13;30.55;;;24.50;;
54795;SDS011;40693;43.884;20.340;2023-06-22T05:35:39;28.85;;;23.48;;
54795;SDS011;40693;43.884;20.340;2023-06-22T05:38:05;35.85;;;25.42;;
54795;SDS011;40693;43.884;20.340;2023-06-22T05:40:30;25.85;;;22.83;;
54795;SDS011;40693;43.884;20.340;2023-06-22T05:42:56;33.53;;;25.58;;
54795;SDS011;40693;43.884;20.340;2023-06-22T05:45:22;31.85;;;25.42;;
54795;SDS011;40693;43.884;20.340;2023-06-22T05:47:47;29.33;;;24.40;;
54795;SDS011;40693;43.884;20.340;2023-06-22T05:50:13;25.83;;;23.20;;
54795;SDS011;40693;43.884;20.340;2023-06-22T05:52:39;27.45;;;23.17;;
54795;SDS011;40693;43.884;20.340;2023-06-22T05:55:05;27.05;;;22.42;;
54795;SDS011;40693;43.884;20.340;2023-06-22T05:57:30;29.05;;;23.55;;
54795;SDS011;40693;43.884;20.340;2023-06-22T05:59:56;25.10;;;22.33;;
54795;SDS011;40693;43.884;20.340;2023-06-22T06:02:22;25.33;;;22.10;;
54795;SDS011;40693;43.884;20.340;2023-06-22T06:04:47;30.13;;;23.33;;
54795;SDS011;40693;43.884;20.340;2023-06-22T06:07:16;30.83;;;22.83;;
54795;SDS011;40693;43.884;20.340;2023-06-22T06:09:41;28.83;;;24.15;;
54795;SDS011;40693;43.884;20.340;2023-06-22T06:12:07;26.35;;;23.65;;
54795;SDS011;40693;43.884;20.340;2023-06-22T06:14:33;28.33;;;22.63;;
54795;SDS011;40693;43.884;20.340;2023-06-22T06:16:59;27.27;;;22.67;;
54795;SDS011;40693;43.884;20.340;2023-06-22T06:19:25;27.98;;;22.77;;
54795;SDS011;40693;43.884;20.340;2023-06-22T06:21:50;29.90;;;22.27;;
54795;SDS011;40693;43.884;20.340;2023-06-22T06:24:16;27.85;;;22.77;;
54795;SDS011;40693;43.884;20.340;2023-06-22T06:26:42;25.73;;;21.40;;
54795;SDS011;40693;43.884;20.340;2023-06-22T06:29:07;27.95;;;21.58;;
54795;SDS011;40693;43.884;20.340;2023-06-22T06:31:33;28.52;;;21.55;;
54795;SDS011;40693;43.884;20.340;2023-06-22T06:33:59;25.88;;;22.13;;
54795;SDS011;40693;43.884;20.340;2023-06-22T06:36:24;27.15;;;22.50;;
54795;SDS011;40693;43.884;20.340;2023-06-22T06:38:50;28.17;;;22.90;;
54795;SDS011;40693;43.884;20.340;2023-06-22T06:41:16;26.35;;;21.25;;
54795;SDS011;40693;43.884;20.340;2023-06-22T06:43:42;26.65;;;19.63;;
54795;SDS011;40693;43.884;20.340;2023-06-22T06:46:08;25.42;;;21.80;;
54795;SDS011;40693;43.884;20.340;2023-06-22T06:48:34;26.00;;;21.38;;
54795;SDS011;40693;43.884;20.340;2023-06-22T06:51:00;26.45;;;20.88;;
54795;SDS011;40693;43.884;20.340;2023-06-22T06:53:26;24.63;;;20.38;;
54795;SDS011;40693;43.884;20.340;2023-06-22T06:55:52;23.98;;;19.83;;
54795;SDS011;40693;43.884;20.340;2023-06-22T06:58:17;23.40;;;20.83;;
54795;SDS011;40693;43.884;20.340;2023-06-22T07:00:43;24.50;;;21.08;;
54795;SDS011;40693;43.884;20.340;2023-06-22T07:03:09;22.60;;;20.00;;
54795;SDS011;40693;43.884;20.340;2023-06-22T07:05:35;24.80;;;19.98;;
54795;SDS011;40693;43.884;20.340;2023-06-22T07:08:01;23.10;;;19.83;;
54795;SDS011;40693;43.884;20.340;2023-06-22T07:10:27;23.80;;;20.42;;
54795;SDS011;40693;43.884;20.340;2023-06-22T07:12:54;24.45;;;21.10;;
54795;SDS011;40693;43.884;20.340;2023-06-22T07:15:19;27.67;;;21.63;;
54795;SDS011;40693;43.884;20.340;2023-06-22T07:17:45;23.23;;;18.95;;
54795;SDS011;40693;43.884;20.340;2023-06-22T07:20:11;25.25;;;21.58;;
54795;SDS011;40693;43.884;20.340;2023-06-22T07:22:38;24.85;;;21.50;;
54795;SDS011;40693;43.884;20.340;2023-06-22T07:25:04;24.67;;;19.70;;
54795;SDS011;40693;43.884;20.340;2023-06-22T07:27:44;23.67;;;21.17;;
54795;SDS011;40693;43.884;20.340;2023-06-22T07:30:26;25.92;;;20.80;;
54795;SDS011;40693;43.884;20.340;2023-06-22T07:32:52;26.67;;;21.60;;
54795;SDS011;40693;43.884;20.340;2023-06-22T07:35:18;28.25;;;21.42;;
54795;SDS011;40693;43.884;20.340;2023-06-22T07:37:44;27.10;;;21.05;;
54795;SDS011;40693;43.884;20.340;2023-06-22T07:40:10;23.33;;;19.83;;
54795;SDS011;40693;43.884;20.340;2023-06-22T07:42:36;24.88;;;20.65;;
54795;SDS011;40693;43.884;20.340;2023-06-22T07:45:03;27.23;;;21.45;;
54795;SDS011;40693;43.884;20.340;2023-06-22T07:47:29;29.73;;;22.08;;
54795;SDS011;40693;43.884;20.340;2023-06-22T07:49:55;24.65;;;21.58;;
54795;SDS011;40693;43.884;20.340;2023-06-22T07:52:25;27.20;;;21.35;;
54795;SDS011;40693;43.884;20.340;2023-06-22T07:54:52;27.30;;;22.98;;
54795;SDS011;40693;43.884;20.340;2023-06-22T07:57:18;30.50;;;23.73;;
54795;SDS011;40693;43.884;20.340;2023-06-22T07:59:44;25.95;;;22.33;;
54795;SDS011;40693;43.884;20.340;2023-06-22T08:02:10;27.85;;;24.00;;
54795;SDS011;40693;43.884;20.340;2023-06-22T08:04:36;54.13;;;27.20;;
54795;SDS011;40693;43.884;20.340;2023-06-22T08:07:02;29.05;;;21.25;;
54795;SDS011;40693;43.884;20.340;2023-06-22T08:09:29;24.08;;;20.20;;
54795;SDS011;40693;43.884;20.340;2023-06-22T08:11:56;30.15;;;22.95;;
54795;SDS011;40693;43.884;20.340;2023-06-22T08:14:23;25.00;;;22.17;;
54795;SDS011;40693;43.884;20.340;2023-06-22T08:16:50;31.83;;;22.80;;
54795;SDS011;40693;43.884;20.340;2023-06-22T08:19:16;22.63;;;20.27;;
54795;SDS011;40693;43.884;20.340;2023-06-22T08:21:42;24.42;;;19.80;;
54795;SDS011;40693;43.884;20.340;2023-06-22T08:24:08;24.35;;;19.63;;
54795;SDS011;40693;43.884;20.340;2023-06-22T08:26:35;23.00;;;19.30;;
54795;SDS011;40693;43.884;20.340;2023-06-22T08:29:02;21.77;;;19.42;;
54795;SDS011;40693;43.884;20.340;2023-06-22T08:31:28;22.90;;;19.58;;
54795;SDS011;40693;43.884;20.340;2023-06-22T08:33:55;22.80;;;20.50;;
54795;SDS011;40693;43.884;20.340;2023-06-22T08:36:21;24.55;;;20.42;;
54795;SDS011;40693;43.884;20.340;2023-06-22T08:38:47;23.90;;;19.58;;
54795;SDS011;40693;43.884;20.340;2023-06-22T08:41:16;21.83;;;18.95;;
54795;SDS011;40693;43.884;20.340;2023-06-22T08:43:43;22.90;;;20.38;;
54795;SDS011;40693;43.884;20.340;2023-06-22T08:46:09;23.42;;;20.92;;
54795;SDS011;40693;43.884;20.340;2023-06-22T08:48:38;25.52;;;19.35;;
54795;SDS011;40693;43.884;20.340;2023-06-22T08:51:04;24.33;;;20.05;;
54795;SDS011;40693;43.884;20.340;2023-06-22T08:53:30;21.90;;;19.77;;
54795;SDS011;40693;43.884;20.340;2023-06-22T08:55:55;26.48;;;19.75;;
54795;SDS011;40693;43.884;20.340;2023-06-22T08:58:21;21.38;;;18.80;;
54795;SDS011;40693;43.884;20.340;2023-06-22T09:00:49;21.95;;;18.80;;
54795;SDS011;40693;43.884;20.340;2023-06-22T09:03:16;21.77;;;18.92;;
54795;SDS011;40693;43.884;20.340;2023-06-22T09:05:42;20.45;;;18.30;;
54795;SDS011;40693;43.884;20.340;2023-06-22T09:08:07;25.48;;;19.92;;
54795;SDS011;40693;43.884;20.340;2023-06-22T09:10:33;21.27;;;19.17;;
54795;SDS011;40693;43.884;20.340;2023-06-22T09:12:59;21.85;;;17.73;;
54795;SDS011;40693;43.884;20.340;2023-06-22T09:15:25;19.77;;;16.45;;
54795;SDS011;40693;43.884;20.340;2023-06-22T09:17:50;17.83;;;16.02;;
54795;SDS011;40693;43.884;20.340;2023-06-22T09:20:19;19.35;;;17.08;;
54795;SDS011;40693;43.884;20.340;2023-06-22T09:22:45;18.83;;;16.48;;
54795;SDS011;40693;43.884;20.340;2023-06-22T09:25:10;20.50;;;15.68;;
54795;SDS011;40693;43.884;20.340;2023-06-22T09:27:36;19.10;;;16.63;;
54795;SDS011;40693;43.884;20.340;2023-06-22T09:30:02;21.30;;;16.95;;
54795;SDS011;40693;43.884;20.340;2023-06-22T09:32:28;21.10;;;16.83;;
54795;SDS011;40693;43.884;20.340;2023-06-22T09:34:54;18.35;;;16.50;;
54795;SDS011;40693;43.884;20.340;2023-06-22T09:37:20;19.27;;;17.33;;
54795;SDS011;40693;43.884;20.340;2023-06-22T09:39:45;23.45;;;17.52;;
54795;SDS011;40693;43.884;20.340;2023-06-22T09:42:11;17.92;;;15.70;;
54795;SDS011;40693;43.884;20.340;2023-06-22T09:44:38;19.02;;;16.20;;
54795;SDS011;40693;43.884;20.340;2023-06-22T09:47:04;18.60;;;16.40;;
54795;SDS011;40693;43.884;20.340;2023-06-22T09:49:30;17.38;;;15.05;;
54795;SDS011;40693;43.884;20.340;2023-06-22T09:51:57;23.85;;;16.85;;
54795;SDS011;40693;43.884;20.340;2023-06-22T09:54:22;20.65;;;15.18;;
54795;SDS011;40693;43.884;20.340;2023-06-22T09:56:48;22.90;;;15.20;;
54795;SDS011;40693;43.884;20.340;2023-06-22T09:59:14;15.27;;;13.77;;
54795;SDS011;40693;43.884;20.340;2023-06-22T10:01:40;15.63;;;13.77;;
54795;SDS011;40693;43.884;20.340;2023-06-22T10:04:05;16.33;;;14.13;;
54795;SDS011;40693;43.884;20.340;2023-06-22T10:06:31;15.82;;;14.00;;
54795;SDS011;40693;43.884;20.340;2023-06-22T10:08:56;16.10;;;13.93;;
54795;SDS011;40693;43.884;20.340;2023-06-22T10:11:22;16.27;;;13.07;;
54795;SDS011;40693;43.884;20.340;2023-06-22T10:13:54;16.05;;;12.52;;
54795;SDS011;40693;43.884;20.340;2023-06-22T10:16:20;13.43;;;11.35;;
54795;SDS011;40693;43.884;20.340;2023-06-22T10:18:45;17.98;;;13.95;;
54795;SDS011;40693;43.884;20.340;2023-06-22T10:21:11;15.57;;;12.57;;
54795;SDS011;40693;43.884;20.340;2023-06-22T10:23:37;14.50;;;11.30;;
54795;SDS011;40693;43.884;20.340;2023-06-22T10:26:02;11.80;;;9.63;;
54795;SDS011;40693;43.884;20.340;2023-06-22T10:28:28;14.88;;;10.20;;
54795;SDS011;40693;43.884;20.340;2023-06-22T10:30:53;11.48;;;10.32;;
54795;SDS011;40693;43.884;20.340;2023-06-22T10:33:19;13.05;;;10.13;;
54795;SDS011;40693;43.884;20.340;2023-06-22T10:35:45;11.38;;;10.13;;
54795;SDS011;40693;43.884;20.340;2023-06-22T10:38:11;13.02;;;9.88;;
54795;SDS011;40693;43.884;20.340;2023-06-22T10:40:36;12.80;;;10.52;;
54795;SDS011;40693;43.884;20.340;2023-06-22T10:43:04;12.40;;;10.40;;
54795;SDS011;40693;43.884;20.340;2023-06-22T10:45:30;11.43;;;10.32;;
54795;SDS011;40693;43.884;20.340;2023-06-22T10:47:55;13.73;;;9.30;;
54795;SDS011;40693;43.884;20.340;2023-06-22T10:50:21;10.93;;;9.88;;
54795;SDS011;40693;43.884;20.340;2023-06-22T10:52:49;10.70;;;9.48;;
54795;SDS011;40693;43.884;20.340;2023-06-22T10:55:14;12.00;;;9.85;;
54795;SDS011;40693;43.884;20.340;2023-06-22T10:57:40;9.05;;;8.13;;
54795;SDS011;40693;43.884;20.340;2023-06-22T11:00:08;10.55;;;9.35;;
54795;SDS011;40693;43.884;20.340;2023-06-22T11:02:34;13.70;;;8.60;;
54795;SDS011;40693;43.884;20.340;2023-06-22T11:04:59;10.63;;;8.18;;
54795;SDS011;40693;43.884;20.340;2023-06-22T11:07:25;9.38;;;7.18;;
54795;SDS011;40693;43.884;20.340;2023-06-22T11:09:53;9.55;;;8.00;;
54795;SDS011;40693;43.884;20.340;2023-06-22T11:12:19;11.23;;;7.25;;
54795;SDS011;40693;43.884;20.340;2023-06-22T11:14:45;9.18;;;7.30;;
54795;SDS011;40693;43.884;20.340;2023-06-22T11:17:10;8.32;;;7.53;;
54795;SDS011;40693;43.884;20.340;2023-06-22T11:19:36;7.53;;;6.75;;
54795;SDS011;40693;43.884;20.340;2023-06-22T11:22:02;8.93;;;7.53;;
54795;SDS011;40693;43.884;20.340;2023-06-22T11:24:28;8.63;;;7.50;;
54795;SDS011;40693;43.884;20.340;2023-06-22T12:08:23;9.52;;;7.20;;
54795;SDS011;40693;43.884;20.340;2023-06-22T12:10:49;9.00;;;8.00;;
54795;SDS011;40693;43.884;20.340;2023-06-22T12:13:15;10.85;;;8.48;;
54795;SDS011;40693;43.884;20.340;2023-06-22T12:15:41;10.95;;;8.07;;
54795;SDS011;40693;43.884;20.340;2023-06-22T12:18:06;9.23;;;8.30;;
54795;SDS011;40693;43.884;20.340;2023-06-22T12:20:34;8.75;;;7.85;;
54795;SDS011;40693;43.884;20.340;2023-06-22T12:22:59;9.57;;;8.63;;
54795;SDS011;40693;43.884;20.340;2023-06-22T12:25:25;8.80;;;7.88;;
54795;SDS011;40693;43.884;20.340;2023-06-22T12:27:51;11.85;;;8.52;;
54795;SDS011;40693;43.884;20.340;2023-06-22T12:30:16;10.40;;;7.82;;
54795;SDS011;40693;43.884;20.340;2023-06-22T12:32:42;8.80;;;6.68;;
54795;SDS011;40693;43.884;20.340;2023-06-22T12:35:08;12.82;;;8.98;;
54795;SDS011;40693;43.884;20.340;2023-06-22T12:37:39;10.65;;;7.80;;
54795;SDS011;40693;43.884;20.340;2023-06-22T12:40:06;8.60;;;7.70;;
54795;SDS011;40693;43.884;20.340;2023-06-22T12:42:32;13.02;;;8.73;;
54795;SDS011;40693;43.884;20.340;2023-06-22T12:44:58;13.95;;;10.23;;
54795;SDS011;40693;43.884;20.340;2023-06-22T12:47:23;9.85;;;8.75;;
54795;SDS011;40693;43.884;20.340;2023-06-22T12:49:49;11.43;;;8.88;;
54795;SDS011;40693;43.884;20.340;2023-06-22T12:52:15;12.77;;;8.68;;
54795;SDS011;40693;43.884;20.340;2023-06-22T12:54:40;8.63;;;7.65;;
54795;SDS011;40693;43.884;20.340;2023-06-22T12:57:06;8.73;;;7.82;;
54795;SDS011;40693;43.884;20.340;2023-06-22T12:59:32;12.27;;;9.63;;
54795;SDS011;40693;43.884;20.340;2023-06-22T13:01:57;11.60;;;8.85;;
54795;SDS011;40693;43.884;20.340;2023-06-22T13:04:23;12.15;;;9.45;;
54795;SDS011;40693;43.884;20.340;2023-06-22T13:06:49;9.13;;;7.90;;
54795;SDS011;40693;43.884;20.340;2023-06-22T13:09:17;10.15;;;7.50;;
54795;SDS011;40693;43.884;20.340;2023-06-22T13:11:43;8.27;;;7.30;;
54795;SDS011;40693;43.884;20.340;2023-06-22T13:14:09;13.32;;;9.55;;
54795;SDS011;40693;43.884;20.340;2023-06-22T13:16:35;9.77;;;8.77;;
54795;SDS011;40693;43.884;20.340;2023-06-22T13:19:01;12.85;;;8.35;;
54795;SDS011;40693;43.884;20.340;2023-06-22T13:21:27;16.08;;;9.90;;
54795;SDS011;40693;43.884;20.340;2023-06-22T13:23:53;10.23;;;9.23;;
54795;SDS011;40693;43.884;20.340;2023-06-22T13:26:19;10.20;;;8.20;;
54795;SDS011;40693;43.884;20.340;2023-06-22T13:28:45;9.15;;;8.27;;
54795;SDS011;40693;43.884;20.340;2023-06-22T13:31:11;11.38;;;8.32;;
54795;SDS011;40693;43.884;20.340;2023-06-22T13:33:37;9.70;;;8.13;;
54795;SDS011;40693;43.884;20.340;2023-06-22T13:36:03;9.70;;;8.18;;
54795;SDS011;40693;43.884;20.340;2023-06-22T13:38:31;12.05;;;9.50;;
54795;SDS011;40693;43.884;20.340;2023-06-22T13:40:57;11.18;;;9.10;;
54795;SDS011;40693;43.884;20.340;2023-06-22T13:43:24;9.43;;;8.43;;
54795;SDS011;40693;43.884;20.340;2023-06-22T13:45:51;12.43;;;9.43;;
54795;SDS011;40693;43.884;20.340;2023-06-22T13:48:17;14.18;;;9.00;;
54795;SDS011;40693;43.884;20.340;2023-06-22T13:50:43;12.07;;;9.00;;
54795;SDS011;40693;43.884;20.340;2023-06-22T13:53:09;12.40;;;9.90;;
54795;SDS011;40693;43.884;20.340;2023-06-22T13:55:34;9.95;;;8.57;;
54795;SDS011;40693;43.884;20.340;2023-06-22T13:58:00;11.45;;;8.63;;
54795;SDS011;40693;43.884;20.340;2023-06-22T14:00:26;10.32;;;9.25;;
54795;SDS011;40693;43.884;20.340;2023-06-22T14:02:53;10.82;;;8.45;;
54795;SDS011;40693;43.884;20.340;2023-06-22T14:05:19;11.95;;;8.82;;
54795;SDS011;40693;43.884;20.340;2023-06-22T14:07:45;11.40;;;8.88;;
54795;SDS011;40693;43.884;20.340;2023-06-22T14:10:13;11.68;;;8.77;;
54795;SDS011;40693;43.884;20.340;2023-06-22T14:12:39;10.57;;;9.05;;
54795;SDS011;40693;43.884;20.340;2023-06-22T14:15:05;13.45;;;11.32;;
54795;SDS011;40693;43.884;20.340;2023-06-22T14:17:31;11.57;;;8.68;;
54795;SDS011;40693;43.884;20.340;2023-06-22T14:19:57;16.08;;;8.95;;
54795;SDS011;40693;43.884;20.340;2023-06-22T14:22:23;10.45;;;8.52;;
54795;SDS011;40693;43.884;20.340;2023-06-22T14:24:51;9.50;;;8.60;;
54795;SDS011;40693;43.884;20.340;2023-06-22T14:27:21;13.95;;;9.57;;
54795;SDS011;40693;43.884;20.340;2023-06-22T14:29:46;10.40;;;8.88;;
54795;SDS011;40693;43.884;20.340;2023-06-22T14:32:12;13.15;;;9.15;;
54795;SDS011;40693;43.884;20.340;2023-06-22T14:34:38;13.70;;;8.63;;
54795;SDS011;40693;43.884;20.340;2023-06-22T14:37:05;11.43;;;8.80;;
54795;SDS011;40693;43.884;20.340;2023-06-22T14:39:32;16.95;;;8.82;;
54795;SDS011;40693;43.884;20.340;2023-06-22T14:41:59;10.63;;;8.82;;
54795;SDS011;40693;43.884;20.340;2023-06-22T14:44:25;12.98;;;9.27;;
54795;SDS011;40693;43.884;20.340;2023-06-22T14:46:54;11.00;;;8.32;;
54795;SDS011;40693;43.884;20.340;2023-06-22T14:49:20;14.07;;;8.57;;
54795;SDS011;40693;43.884;20.340;2023-06-22T14:51:45;12.30;;;8.32;;
54795;SDS011;40693;43.884;20.340;2023-06-22T14:54:11;13.90;;;9.48;;
54795;SDS011;40693;43.884;20.340;2023-06-22T14:56:37;9.73;;;8.73;;
54795;SDS011;40693;43.884;20.340;2023-06-22T14:59:02;7.90;;;7.15;;